sensor_id;sensor_type;location;lat;lon;timestamp;pressure;altitude;pressure_sealevel;temperature;humidity
13974;BME280;7060;43.770;4.008;2023-05-02T00:00:16;101155.91;;;13.87;53.74
13974;BME280;7060;43.770;4.008;2023-05-02T00:02:46;101160.59;;;13.85;53.17
13974;BME280;7060;43.770;4.008;2023-05-02T00:05:16;101162.28;;;13.86;52.87
13974;BME280;7060;43.770;4.008;2023-05-02T00:07:44;101147.47;;;13.82;51.95
13974;BME280;7060;43.770;4.008;2023-05-02T00:10:14;101154.91;;;13.88;52.04
13974;BME280;7060;43.770;4.008;2023-05-02T00:12:43;101152.75;;;13.92;51.94
13974;BME280;7060;43.770;4.008;2023-05-02T00:15:11;101081.44;;;13.54;51.24
13974;BME280;7060;43.770;4.008;2023-05-02T00:17:40;101119.75;;;13.82;50.81
13974;BME280;7060;43.770;4.008;2023-05-02T00:20:12;101130.31;;;14.01;51.03
13974;BME280;7060;43.770;4.008;2023-05-02T00:22:40;101129.63;;;13.99;50.65
13974;BME280;7060;43.770;4.008;2023-05-02T00:25:10;101122.56;;;13.98;51.31
13974;BME280;7060;43.770;4.008;2023-05-02T00:27:42;101102.00;;;13.89;50.94
13974;BME280;7060;43.770;4.008;2023-05-02T00:30:13;101109.81;;;14.00;50.33
13974;BME280;7060;43.770;4.008;2023-05-02T00:32:42;101106.28;;;14.00;50.12
13974;BME280;7060;43.770;4.008;2023-05-02T00:35:13;101113.81;;;13.96;50.53
13974;BME280;7060;43.770;4.008;2023-05-02T00:37:41;101097.63;;;13.88;50.67
13974;BME280;7060;43.770;4.008;2023-05-02T00:40:11;101099.25;;;13.81;50.81
13974;BME280;7060;43.770;4.008;2023-05-02T00:42:40;101096.56;;;13.81;50.35
13974;BME280;7060;43.770;4.008;2023-05-02T00:45:09;101095.53;;;13.74;50.62
13974;BME280;7060;43.770;4.008;2023-05-02T00:47:39;101083.09;;;13.73;50.62
13974;BME280;7060;43.770;4.008;2023-05-02T00:50:08;101087.78;;;13.71;50.13
13974;BME280;7060;43.770;4.008;2023-05-02T00:52:39;101095.00;;;13.70;50.04
13974;BME280;7060;43.770;4.008;2023-05-02T00:55:08;101090.47;;;13.71;50.17
13974;BME280;7060;43.770;4.008;2023-05-02T00:57:37;101084.78;;;13.74;49.13
13974;BME280;7060;43.770;4.008;2023-05-02T01:00:06;101080.75;;;13.78;48.83
13974;BME280;7060;43.770;4.008;2023-05-02T01:02:46;101079.44;;;13.82;48.41
13974;BME280;7060;43.770;4.008;2023-05-02T01:05:20;101075.59;;;13.84;47.30
13974;BME280;7060;43.770;4.008;2023-05-02T01:08:12;101069.06;;;13.87;47.35
13974;BME280;7060;43.770;4.008;2023-05-02T01:10:51;100989.69;;;13.41;47.45
13974;BME280;7060;43.770;4.008;2023-05-02T01:13:27;101065.06;;;13.91;46.96
13974;BME280;7060;43.770;4.008;2023-05-02T01:15:57;101065.91;;;13.92;47.47
13974;BME280;7060;43.770;4.008;2023-05-02T01:18:30;101063.91;;;13.94;47.25
13974;BME280;7060;43.770;4.008;2023-05-02T01:21:00;101026.13;;;13.69;47.35
13974;BME280;7060;43.770;4.008;2023-05-02T01:23:40;101062.75;;;13.96;47.07
13974;BME280;7060;43.770;4.008;2023-05-02T01:26:25;101064.06;;;13.92;46.90
13974;BME280;7060;43.770;4.008;2023-05-02T01:28:58;101061.69;;;13.89;47.87
13974;BME280;7060;43.770;4.008;2023-05-02T01:31:31;101061.16;;;13.85;47.53
13974;BME280;7060;43.770;4.008;2023-05-02T01:34:06;101058.63;;;13.84;47.52
13974;BME280;7060;43.770;4.008;2023-05-02T01:36:42;101060.47;;;13.83;47.13
13974;BME280;7060;43.770;4.008;2023-05-02T01:39:23;101066.69;;;13.84;47.58
13974;BME280;7060;43.770;4.008;2023-05-02T01:41:54;100997.28;;;13.45;47.53
13974;BME280;7060;43.770;4.008;2023-05-02T01:44:33;101057.78;;;13.83;47.67
13974;BME280;7060;43.770;4.008;2023-05-02T01:47:04;101020.03;;;13.59;47.90
13974;BME280;7060;43.770;4.008;2023-05-02T01:49:34;101063.47;;;13.80;47.82
13974;BME280;7060;43.770;4.008;2023-05-02T01:52:08;101050.34;;;13.77;48.14
13974;BME280;7060;43.770;4.008;2023-05-02T01:54:40;101050.84;;;13.73;48.05
13974;BME280;7060;43.770;4.008;2023-05-02T01:57:10;101046.63;;;13.70;48.33
13974;BME280;7060;43.770;4.008;2023-05-02T01:59:42;101055.00;;;13.67;48.43
13974;BME280;7060;43.770;4.008;2023-05-02T02:02:13;101050.78;;;13.65;49.15
13974;BME280;7060;43.770;4.008;2023-05-02T02:04:46;101054.63;;;13.62;49.15
13974;BME280;7060;43.770;4.008;2023-05-02T02:07:17;101053.09;;;13.60;48.86
13974;BME280;7060;43.770;4.008;2023-05-02T02:09:46;101047.03;;;13.57;49.36
13974;BME280;7060;43.770;4.008;2023-05-02T02:12:19;101048.19;;;13.55;48.73
13974;BME280;7060;43.770;4.008;2023-05-02T02:14:55;101050.34;;;13.51;48.71
13974;BME280;7060;43.770;4.008;2023-05-02T02:17:28;101045.97;;;13.50;48.14
13974;BME280;7060;43.770;4.008;2023-05-02T02:20:00;101049.34;;;13.52;48.56
13974;BME280;7060;43.770;4.008;2023-05-02T02:22:33;101041.13;;;13.54;48.81
13974;BME280;7060;43.770;4.008;2023-05-02T02:25:07;101046.50;;;13.54;49.27
13974;BME280;7060;43.770;4.008;2023-05-02T02:27:37;101052.00;;;13.44;50.08
13974;BME280;7060;43.770;4.008;2023-05-02T02:30:10;100928.19;;;12.68;49.65
13974;BME280;7060;43.770;4.008;2023-05-02T02:32:40;101043.53;;;13.39;49.17
13974;BME280;7060;43.770;4.008;2023-05-02T02:35:09;101048.06;;;13.39;49.37
13974;BME280;7060;43.770;4.008;2023-05-02T02:37:43;101045.84;;;13.34;49.50
13974;BME280;7060;43.770;4.008;2023-05-02T02:40:20;101053.34;;;13.31;49.42
13974;BME280;7060;43.770;4.008;2023-05-02T02:42:58;101055.19;;;13.30;49.12
13974;BME280;7060;43.770;4.008;2023-05-02T02:45:34;101058.88;;;13.29;49.39
13974;BME280;7060;43.770;4.008;2023-05-02T02:48:13;101062.56;;;13.28;49.88
13974;BME280;7060;43.770;4.008;2023-05-02T02:50:59;101062.03;;;13.24;50.33
13974;BME280;7060;43.770;4.008;2023-05-02T02:53:33;101068.72;;;13.20;49.94
13974;BME280;7060;43.770;4.008;2023-05-02T02:56:14;101066.34;;;13.17;50.12
13974;BME280;7060;43.770;4.008;2023-05-02T02:58:47;101064.81;;;13.15;50.68
13974;BME280;7060;43.770;4.008;2023-05-02T03:01:21;101056.75;;;13.15;50.50
13974;BME280;7060;43.770;4.008;2023-05-02T03:03:53;100970.75;;;12.63;50.02
13974;BME280;7060;43.770;4.008;2023-05-02T03:06:22;101057.59;;;13.15;50.50
13974;BME280;7060;43.770;4.008;2023-05-02T03:08:52;101055.06;;;13.14;50.30
13974;BME280;7060;43.770;4.008;2023-05-02T03:11:28;101059.75;;;13.12;50.81
13974;BME280;7060;43.770;4.008;2023-05-02T03:13:58;101051.84;;;13.10;51.06
13974;BME280;7060;43.770;4.008;2023-05-02T03:16:36;101052.84;;;13.09;50.40
13974;BME280;7060;43.770;4.008;2023-05-02T03:19:09;101061.34;;;13.05;50.78
13974;BME280;7060;43.770;4.008;2023-05-02T03:21:39;101061.66;;;13.02;50.81
13974;BME280;7060;43.770;4.008;2023-05-02T03:24:15;101054.06;;;12.97;51.30
13974;BME280;7060;43.770;4.008;2023-05-02T03:26:47;101053.06;;;12.98;51.16
13974;BME280;7060;43.770;4.008;2023-05-02T03:29:23;101059.44;;;12.97;50.77
13974;BME280;7060;43.770;4.008;2023-05-02T03:31:54;101056.28;;;13.02;50.68
13974;BME280;7060;43.770;4.008;2023-05-02T03:34:23;101048.25;;;13.02;50.83
13974;BME280;7060;43.770;4.008;2023-05-02T03:36:53;101054.59;;;13.01;50.47
13974;BME280;7060;43.770;4.008;2023-05-02T03:39:23;101047.25;;;13.03;50.14
13974;BME280;7060;43.770;4.008;2023-05-02T03:41:51;100919.25;;;12.24;50.11
13974;BME280;7060;43.770;4.008;2023-05-02T03:44:22;101056.69;;;13.07;50.21
13974;BME280;7060;43.770;4.008;2023-05-02T03:46:55;101065.44;;;13.09;50.67
13974;BME280;7060;43.770;4.008;2023-05-02T03:49:25;101064.88;;;13.05;50.71
13974;BME280;7060;43.770;4.008;2023-05-02T03:51:54;101060.22;;;13.07;50.99
13974;BME280;7060;43.770;4.008;2023-05-02T03:54:32;101063.34;;;13.03;51.59
13974;BME280;7060;43.770;4.008;2023-05-02T03:57:03;101060.81;;;13.01;51.14
13974;BME280;7060;43.770;4.008;2023-05-02T03:59:32;101059.13;;;13.00;51.82
13974;BME280;7060;43.770;4.008;2023-05-02T04:02:12;101061.13;;;12.98;51.40
13974;BME280;7060;43.770;4.008;2023-05-02T04:04:45;101064.09;;;12.95;51.51
13974;BME280;7060;43.770;4.008;2023-05-02T04:07:17;101062.97;;;12.98;51.09
13974;BME280;7060;43.770;4.008;2023-05-02T04:09:55;101063.81;;;12.98;50.95
13974;BME280;7060;43.770;4.008;2023-05-02T04:12:25;101066.50;;;12.98;52.00
13974;BME280;7060;43.770;4.008;2023-05-02T04:14:54;101076.38;;;12.98;51.94
13974;BME280;7060;43.770;4.008;2023-05-02T04:17:28;101069.31;;;12.97;51.91
13974;BME280;7060;43.770;4.008;2023-05-02T04:19:56;101082.38;;;12.92;51.38
13974;BME280;7060;43.770;4.008;2023-05-02T04:22:29;101082.38;;;12.92;51.58
13974;BME280;7060;43.770;4.008;2023-05-02T04:25:02;101065.97;;;12.95;51.44
13974;BME280;7060;43.770;4.008;2023-05-02T04:27:32;101088.25;;;12.95;51.57
13974;BME280;7060;43.770;4.008;2023-05-02T04:30:01;101074.94;;;12.85;51.18
13974;BME280;7060;43.770;4.008;2023-05-02T04:32:32;101100.69;;;12.96;50.96
13974;BME280;7060;43.770;4.008;2023-05-02T04:35:03;101094.97;;;12.91;51.53
13974;BME280;7060;43.770;4.008;2023-05-02T04:37:32;101094.25;;;12.89;51.58
13974;BME280;7060;43.770;4.008;2023-05-02T04:40:01;101090.03;;;12.86;51.19
13974;BME280;7060;43.770;4.008;2023-05-02T04:42:30;101098.47;;;12.92;51.36
13974;BME280;7060;43.770;4.008;2023-05-02T04:45:08;101100.53;;;12.98;50.61
13974;BME280;7060;43.770;4.008;2023-05-02T04:47:39;101102.31;;;13.07;50.21
13974;BME280;7060;43.770;4.008;2023-05-02T04:50:09;101100.88;;;13.12;49.85
13974;BME280;7060;43.770;4.008;2023-05-02T04:52:37;101098.56;;;13.17;50.29
13974;BME280;7060;43.770;4.008;2023-05-02T04:55:09;101107.81;;;13.23;50.44
13974;BME280;7060;43.770;4.008;2023-05-02T04:57:37;101121.44;;;13.21;50.17
13974;BME280;7060;43.770;4.008;2023-05-02T05:00:11;101111.34;;;13.23;50.80
13974;BME280;7060;43.770;4.008;2023-05-02T05:02:41;101112.84;;;13.18;50.73
13974;BME280;7060;43.770;4.008;2023-05-02T05:05:12;101125.56;;;13.16;51.60
13974;BME280;7060;43.770;4.008;2023-05-02T05:07:41;101131.09;;;13.14;49.75
13974;BME280;7060;43.770;4.008;2023-05-02T05:10:10;101127.47;;;13.23;49.26
13974;BME280;7060;43.770;4.008;2023-05-02T05:12:43;101132.22;;;13.30;49.38
13974;BME280;7060;43.770;4.008;2023-05-02T05:15:13;101132.16;;;13.39;49.21
13974;BME280;7060;43.770;4.008;2023-05-02T05:17:47;101125.22;;;13.46;49.13
13974;BME280;7060;43.770;4.008;2023-05-02T05:20:16;101128.63;;;13.56;48.76
13974;BME280;7060;43.770;4.008;2023-05-02T05:22:47;101137.06;;;13.62;49.22
13974;BME280;7060;43.770;4.008;2023-05-02T05:25:18;101130.09;;;13.69;49.22
13974;BME280;7060;43.770;4.008;2023-05-02T05:27:48;101125.94;;;13.74;48.87
13974;BME280;7060;43.770;4.008;2023-05-02T05:30:19;101125.59;;;13.77;48.88
13974;BME280;7060;43.770;4.008;2023-05-02T05:32:49;101129.50;;;13.83;48.84
13974;BME280;7060;43.770;4.008;2023-05-02T05:35:20;101123.88;;;13.94;48.84
13974;BME280;7060;43.770;4.008;2023-05-02T05:37:48;101129.34;;;14.10;49.23
13974;BME280;7060;43.770;4.008;2023-05-02T05:40:17;101131.47;;;14.33;49.37
13974;BME280;7060;43.770;4.008;2023-05-02T05:42:52;101137.03;;;14.57;48.30
13974;BME280;7060;43.770;4.008;2023-05-02T05:45:26;101142.50;;;14.81;47.99
13974;BME280;7060;43.770;4.008;2023-05-02T05:47:56;101135.47;;;14.97;46.77
13974;BME280;7060;43.770;4.008;2023-05-02T05:50:26;101129.09;;;15.14;46.50
13974;BME280;7060;43.770;4.008;2023-05-02T05:52:55;101130.97;;;15.30;47.10
13974;BME280;7060;43.770;4.008;2023-05-02T05:55:23;101126.44;;;15.38;46.30
13974;BME280;7060;43.770;4.008;2023-05-02T05:57:54;101120.53;;;15.43;45.53
13974;BME280;7060;43.770;4.008;2023-05-02T06:00:22;101130.13;;;15.45;45.66
13974;BME280;7060;43.770;4.008;2023-05-02T06:02:51;101130.13;;;15.45;45.72
13974;BME280;7060;43.770;4.008;2023-05-02T06:05:31;101125.28;;;15.41;45.23
13974;BME280;7060;43.770;4.008;2023-05-02T06:07:59;101117.84;;;15.43;44.48
13974;BME280;7060;43.770;4.008;2023-05-02T06:10:29;101103.34;;;15.44;45.18
13974;BME280;7060;43.770;4.008;2023-05-02T06:12:58;101111.28;;;15.70;44.67
13974;BME280;7060;43.770;4.008;2023-05-02T06:15:32;101113.59;;;16.05;43.93
13974;BME280;7060;43.770;4.008;2023-05-02T06:18:03;101112.41;;;16.55;42.73
13974;BME280;7060;43.770;4.008;2023-05-02T06:20:34;101113.09;;;17.19;42.30
13974;BME280;7060;43.770;4.008;2023-05-02T06:23:03;101113.03;;;17.87;40.43
13974;BME280;7060;43.770;4.008;2023-05-02T06:25:31;101117.63;;;18.46;40.10
13974;BME280;7060;43.770;4.008;2023-05-02T06:27:59;101121.94;;;19.06;39.58
13974;BME280;7060;43.770;4.008;2023-05-02T06:30:28;101119.00;;;19.65;37.62
13974;BME280;7060;43.770;4.008;2023-05-02T06:32:56;101122.25;;;20.09;36.72
13974;BME280;7060;43.770;4.008;2023-05-02T06:35:25;101116.94;;;20.57;34.61
13974;BME280;7060;43.770;4.008;2023-05-02T06:37:55;101120.78;;;20.89;34.75
13974;BME280;7060;43.770;4.008;2023-05-02T06:40:23;101107.75;;;21.12;32.76
13974;BME280;7060;43.770;4.008;2023-05-02T06:42:54;101114.25;;;21.38;33.32
13974;BME280;7060;43.770;4.008;2023-05-02T06:45:23;101095.00;;;21.52;32.19
13974;BME280;7060;43.770;4.008;2023-05-02T06:47:51;101108.44;;;21.87;31.55
13974;BME280;7060;43.770;4.008;2023-05-02T06:50:20;101083.88;;;22.13;31.48
13974;BME280;7060;43.770;4.008;2023-05-02T06:52:48;101094.06;;;22.44;31.06
13974;BME280;7060;43.770;4.008;2023-05-02T06:55:18;101092.53;;;22.68;30.49
13974;BME280;7060;43.770;4.008;2023-05-02T06:57:47;101084.88;;;22.83;29.74
13974;BME280;7060;43.770;4.008;2023-05-02T07:00:17;101084.81;;;22.96;30.41
13974;BME280;7060;43.770;4.008;2023-05-02T07:02:47;101081.78;;;23.11;29.99
13974;BME280;7060;43.770;4.008;2023-05-02T07:05:16;101082.03;;;23.41;29.73
13974;BME280;7060;43.770;4.008;2023-05-02T07:07:44;101078.47;;;23.66;29.87
13974;BME280;7060;43.770;4.008;2023-05-02T07:10:13;101074.16;;;23.76;28.79
13974;BME280;7060;43.770;4.008;2023-05-02T07:12:43;101074.13;;;23.83;29.21
13974;BME280;7060;43.770;4.008;2023-05-02T07:15:11;101078.63;;;23.95;28.78
13974;BME280;7060;43.770;4.008;2023-05-02T07:17:42;101082.00;;;23.91;27.94
13974;BME280;7060;43.770;4.008;2023-05-02T07:20:13;101083.25;;;23.95;28.43
13974;BME280;7060;43.770;4.008;2023-05-02T07:22:42;101095.41;;;24.17;28.58
13974;BME280;7060;43.770;4.008;2023-05-02T07:25:10;101087.97;;;24.24;28.02
13974;BME280;7060;43.770;4.008;2023-05-02T07:27:39;101090.66;;;24.31;27.87
13974;BME280;7060;43.770;4.008;2023-05-02T07:30:09;101091.88;;;24.35;27.65
13974;BME280;7060;43.770;4.008;2023-05-02T07:32:38;101091.84;;;24.53;28.69
13974;BME280;7060;43.770;4.008;2023-05-02T07:35:08;101070.69;;;24.67;27.51
13974;BME280;7060;43.770;4.008;2023-05-02T07:37:36;101095.78;;;24.76;27.87
13974;BME280;7060;43.770;4.008;2023-05-02T07:40:06;101083.41;;;24.73;27.78
13974;BME280;7060;43.770;4.008;2023-05-02T07:42:35;101079.38;;;24.76;27.66
13974;BME280;7060;43.770;4.008;2023-05-02T07:45:04;101072.34;;;24.68;27.67
13974;BME280;7060;43.770;4.008;2023-05-02T07:47:34;101072.72;;;24.53;27.88
13974;BME280;7060;43.770;4.008;2023-05-02T07:50:03;100976.50;;;23.78;27.75
13974;BME280;7060;43.770;4.008;2023-05-02T07:52:32;101076.41;;;23.86;28.09
13974;BME280;7060;43.770;4.008;2023-05-02T07:55:00;101076.41;;;23.61;28.81
13974;BME280;7060;43.770;4.008;2023-05-02T07:57:29;101066.38;;;23.30;29.43
13974;BME280;7060;43.770;4.008;2023-05-02T07:59:59;101068.66;;;23.02;29.41
13974;BME280;7060;43.770;4.008;2023-05-02T08:02:40;101064.22;;;22.69;29.54
13974;BME280;7060;43.770;4.008;2023-05-02T08:05:09;101063.22;;;22.57;30.26
13974;BME280;7060;43.770;4.008;2023-05-02T08:07:37;101053.44;;;22.36;30.13
13974;BME280;7060;43.770;4.008;2023-05-02T08:10:07;101070.03;;;22.21;30.96
13974;BME280;7060;43.770;4.008;2023-05-02T08:12:39;101052.88;;;22.14;30.82
13974;BME280;7060;43.770;4.008;2023-05-02T08:15:10;101061.69;;;22.16;31.61
13974;BME280;7060;43.770;4.008;2023-05-02T08:17:40;101055.81;;;22.13;31.25
13974;BME280;7060;43.770;4.008;2023-05-02T08:20:10;101066.34;;;21.96;31.64
13974;BME280;7060;43.770;4.008;2023-05-02T08:22:38;101055.88;;;21.86;31.37
13974;BME280;7060;43.770;4.008;2023-05-02T08:25:07;101073.06;;;21.80;31.59
13974;BME280;7060;43.770;4.008;2023-05-02T08:27:35;101064.22;;;21.72;31.80
13974;BME280;7060;43.770;4.008;2023-05-02T08:30:05;101064.88;;;21.60;31.47
13974;BME280;7060;43.770;4.008;2023-05-02T08:32:35;101050.03;;;21.56;31.96
13974;BME280;7060;43.770;4.008;2023-05-02T08:35:06;101057.94;;;21.71;32.39
13974;BME280;7060;43.770;4.008;2023-05-02T08:37:35;101054.22;;;21.85;32.37
13974;BME280;7060;43.770;4.008;2023-05-02T08:40:04;101069.47;;;21.93;31.56
13974;BME280;7060;43.770;4.008;2023-05-02T08:42:33;101071.38;;;21.86;31.54
13974;BME280;7060;43.770;4.008;2023-05-02T08:45:03;101060.06;;;21.89;32.80
13974;BME280;7060;43.770;4.008;2023-05-02T08:47:32;101044.56;;;21.96;31.89
13974;BME280;7060;43.770;4.008;2023-05-02T08:50:02;101051.88;;;21.76;31.49
13974;BME280;7060;43.770;4.008;2023-05-02T08:52:33;101051.50;;;21.79;31.26
13974;BME280;7060;43.770;4.008;2023-05-02T08:55:02;101061.50;;;21.72;30.97
13974;BME280;7060;43.770;4.008;2023-05-02T08:57:31;101073.25;;;21.79;31.34
13974;BME280;7060;43.770;4.008;2023-05-02T08:59:59;101012.75;;;21.50;29.62
13974;BME280;7060;43.770;4.008;2023-05-02T09:02:49;101068.03;;;21.84;30.78
13974;BME280;7060;43.770;4.008;2023-05-02T09:05:22;101048.97;;;21.90;31.66
13974;BME280;7060;43.770;4.008;2023-05-02T09:07:53;101067.59;;;21.93;31.70
13974;BME280;7060;43.770;4.008;2023-05-02T09:10:24;101060.03;;;22.02;31.82
13974;BME280;7060;43.770;4.008;2023-05-02T09:12:52;101069.84;;;22.10;31.46
13974;BME280;7060;43.770;4.008;2023-05-02T09:15:21;101076.75;;;22.19;31.12
13974;BME280;7060;43.770;4.008;2023-05-02T09:17:49;101074.81;;;22.26;30.97
13974;BME280;7060;43.770;4.008;2023-05-02T09:20:18;101075.22;;;22.36;31.30
13974;BME280;7060;43.770;4.008;2023-05-02T09:22:47;101080.41;;;22.51;31.42
13974;BME280;7060;43.770;4.008;2023-05-02T09:25:18;101101.09;;;22.72;30.90
13974;BME280;7060;43.770;4.008;2023-05-02T09:27:51;101063.16;;;22.70;30.82
13974;BME280;7060;43.770;4.008;2023-05-02T09:30:21;101093.44;;;22.93;30.13
13974;BME280;7060;43.770;4.008;2023-05-02T09:32:51;101093.88;;;22.90;30.23
13974;BME280;7060;43.770;4.008;2023-05-02T09:35:22;101083.78;;;22.98;29.51
13974;BME280;7060;43.770;4.008;2023-05-02T09:37:51;101083.81;;;22.91;29.00
13974;BME280;7060;43.770;4.008;2023-05-02T09:40:23;101070.84;;;22.80;29.19
13974;BME280;7060;43.770;4.008;2023-05-02T09:42:54;101089.47;;;22.89;29.75
13974;BME280;7060;43.770;4.008;2023-05-02T09:45:24;101089.41;;;23.03;29.53
13974;BME280;7060;43.770;4.008;2023-05-02T09:47:52;101090.38;;;23.15;29.75
13974;BME280;7060;43.770;4.008;2023-05-02T09:50:35;101083.19;;;23.27;29.21
13974;BME280;7060;43.770;4.008;2023-05-02T09:53:05;101080.88;;;23.31;28.05
13974;BME280;7060;43.770;4.008;2023-05-02T09:55:35;101086.53;;;23.29;27.70
13974;BME280;7060;43.770;4.008;2023-05-02T09:58:03;101083.91;;;23.41;28.05
13974;BME280;7060;43.770;4.008;2023-05-02T10:00:40;101081.81;;;23.43;28.20
13974;BME280;7060;43.770;4.008;2023-05-02T10:03:09;101079.69;;;23.45;28.88
13974;BME280;7060;43.770;4.008;2023-05-02T10:05:39;101091.19;;;23.53;28.87
13974;BME280;7060;43.770;4.008;2023-05-02T10:08:08;101068.50;;;23.53;27.68
13974;BME280;7060;43.770;4.008;2023-05-02T10:10:40;101069.28;;;23.60;28.28
13974;BME280;7060;43.770;4.008;2023-05-02T10:13:12;101065.88;;;23.64;27.34
13974;BME280;7060;43.770;4.008;2023-05-02T10:15:43;101065.88;;;23.64;27.06
13974;BME280;7060;43.770;4.008;2023-05-02T10:18:13;101074.56;;;23.80;28.51
13974;BME280;7060;43.770;4.008;2023-05-02T10:20:43;101064.28;;;24.00;28.33
13974;BME280;7060;43.770;4.008;2023-05-02T10:23:16;101057.03;;;24.12;28.68
13974;BME280;7060;43.770;4.008;2023-05-02T10:25:47;101056.72;;;24.20;28.52
13974;BME280;7060;43.770;4.008;2023-05-02T10:28:16;101054.13;;;24.25;28.59
13974;BME280;7060;43.770;4.008;2023-05-02T10:30:45;101060.81;;;24.29;27.78
13974;BME280;7060;43.770;4.008;2023-05-02T10:33:15;101049.88;;;24.29;27.54
13974;BME280;7060;43.770;4.008;2023-05-02T10:35:45;101051.56;;;24.30;28.05
13974;BME280;7060;43.770;4.008;2023-05-02T10:38:15;101053.84;;;24.34;27.39
13974;BME280;7060;43.770;4.008;2023-05-02T10:40:52;101049.66;;;24.31;28.93
13974;BME280;7060;43.770;4.008;2023-05-02T10:43:24;101049.88;;;24.29;27.96
13974;BME280;7060;43.770;4.008;2023-05-02T10:45:54;101039.56;;;24.32;28.66
13974;BME280;7060;43.770;4.008;2023-05-02T10:48:23;101044.13;;;24.38;27.40
13974;BME280;7060;43.770;4.008;2023-05-02T10:50:53;101036.16;;;24.36;27.51
13974;BME280;7060;43.770;4.008;2023-05-02T10:53:27;101037.00;;;24.37;27.21
13974;BME280;7060;43.770;4.008;2023-05-02T10:56:16;101035.63;;;24.27;27.14
13974;BME280;7060;43.770;4.008;2023-05-02T10:58:47;101051.34;;;24.32;27.93
13974;BME280;7060;43.770;4.008;2023-05-02T11:01:36;101020.81;;;24.35;28.52
13974;BME280;7060;43.770;4.008;2023-05-02T11:04:09;101036.34;;;24.53;27.36
13974;BME280;7060;43.770;4.008;2023-05-02T11:09:39;101033.00;;;24.51;27.85
13974;BME280;7060;43.770;4.008;2023-05-02T11:12:09;101023.75;;;24.52;27.04
13974;BME280;7060;43.770;4.008;2023-05-02T11:14:42;101012.06;;;24.45;27.40
13974;BME280;7060;43.770;4.008;2023-05-02T11:17:13;101004.94;;;24.44;26.64
13974;BME280;7060;43.770;4.008;2023-05-02T11:22:48;101012.19;;;24.50;26.61
13974;BME280;7060;43.770;4.008;2023-05-02T11:25:37;101002.91;;;24.39;27.15
13974;BME280;7060;43.770;4.008;2023-05-02T11:34:43;100998.44;;;24.56;27.52
13974;BME280;7060;43.770;4.008;2023-05-02T11:37:12;101017.22;;;24.71;28.05
13974;BME280;7060;43.770;4.008;2023-05-02T11:39:41;101007.97;;;24.84;26.57
13974;BME280;7060;43.770;4.008;2023-05-02T11:42:10;101006.81;;;24.91;26.35
13974;BME280;7060;43.770;4.008;2023-05-02T11:44:57;100995.50;;;25.00;26.64
13974;BME280;7060;43.770;4.008;2023-05-02T11:47:27;101016.69;;;25.04;26.13
13974;BME280;7060;43.770;4.008;2023-05-02T11:49:56;101006.22;;;25.01;25.82
13974;BME280;7060;43.770;4.008;2023-05-02T11:52:25;100994.47;;;25.12;25.77
13974;BME280;7060;43.770;4.008;2023-05-02T11:54:54;101002.81;;;25.17;25.27
13974;BME280;7060;43.770;4.008;2023-05-02T11:57:23;100995.44;;;25.18;25.36
13974;BME280;7060;43.770;4.008;2023-05-02T11:59:52;100999.63;;;25.20;25.79
13974;BME280;7060;43.770;4.008;2023-05-02T12:02:36;101007.38;;;25.35;26.99
13974;BME280;7060;43.770;4.008;2023-05-02T12:05:06;101003.47;;;25.43;26.29
13974;BME280;7060;43.770;4.008;2023-05-02T12:07:36;100994.06;;;25.50;25.40
13974;BME280;7060;43.770;4.008;2023-05-02T12:10:06;100982.16;;;25.56;25.83
13974;BME280;7060;43.770;4.008;2023-05-02T12:12:36;100990.00;;;25.64;26.23
13974;BME280;7060;43.770;4.008;2023-05-02T12:15:07;100987.28;;;25.76;26.16
13974;BME280;7060;43.770;4.008;2023-05-02T12:17:39;100979.16;;;25.81;26.07
13974;BME280;7060;43.770;4.008;2023-05-02T12:20:10;100978.66;;;25.84;24.97
13974;BME280;7060;43.770;4.008;2023-05-02T12:22:39;100986.66;;;25.86;25.71
13974;BME280;7060;43.770;4.008;2023-05-02T12:25:07;100985.69;;;25.92;26.09
13974;BME280;7060;43.770;4.008;2023-05-02T12:27:36;100989.28;;;26.04;25.85
13974;BME280;7060;43.770;4.008;2023-05-02T12:30:06;100983.81;;;26.04;24.43
13974;BME280;7060;43.770;4.008;2023-05-02T12:32:36;100992.75;;;26.00;23.69
13974;BME280;7060;43.770;4.008;2023-05-02T12:35:20;100985.59;;;25.99;24.17
13974;BME280;7060;43.770;4.008;2023-05-02T12:37:51;100985.84;;;25.97;23.93
13974;BME280;7060;43.770;4.008;2023-05-02T12:40:21;100996.44;;;26.05;23.93
13974;BME280;7060;43.770;4.008;2023-05-02T12:42:59;100982.94;;;25.92;23.01
13974;BME280;7060;43.770;4.008;2023-05-02T12:45:30;100991.66;;;25.89;24.25
13974;BME280;7060;43.770;4.008;2023-05-02T12:48:05;100985.69;;;25.92;24.07
13974;BME280;7060;43.770;4.008;2023-05-02T12:50:44;100978.53;;;25.91;25.03
13974;BME280;7060;43.770;4.008;2023-05-02T12:53:14;100989.03;;;25.82;24.79
13974;BME280;7060;43.770;4.008;2023-05-02T12:55:42;100974.50;;;25.82;25.06
13974;BME280;7060;43.770;4.008;2023-05-02T12:58:11;100985.09;;;25.90;24.69
13974;BME280;7060;43.770;4.008;2023-05-02T13:00:41;100976.16;;;25.94;24.88
13974;BME280;7060;43.770;4.008;2023-05-02T13:03:14;100976.91;;;26.02;24.26
13974;BME280;7060;43.770;4.008;2023-05-02T13:05:43;100972.13;;;25.97;24.79
13974;BME280;7060;43.770;4.008;2023-05-02T13:08:11;100968.19;;;26.05;25.27
13974;BME280;7060;43.770;4.008;2023-05-02T13:10:39;100981.06;;;26.04;23.88
13974;BME280;7060;43.770;4.008;2023-05-02T13:13:08;100963.19;;;25.90;24.63
13974;BME280;7060;43.770;4.008;2023-05-02T13:15:37;100953.31;;;25.89;24.87
13974;BME280;7060;43.770;4.008;2023-05-02T13:18:05;100945.09;;;25.89;25.74
13974;BME280;7060;43.770;4.008;2023-05-02T13:20:35;100954.63;;;25.98;25.27
13974;BME280;7060;43.770;4.008;2023-05-02T13:23:03;100975.66;;;26.09;25.38
13974;BME280;7060;43.770;4.008;2023-05-02T13:25:32;100966.72;;;26.14;25.25
13974;BME280;7060;43.770;4.008;2023-05-02T13:28:00;100961.59;;;26.17;25.35
13974;BME280;7060;43.770;4.008;2023-05-02T13:30:29;100961.59;;;26.17;24.29
13974;BME280;7060;43.770;4.008;2023-05-02T13:32:57;100957.91;;;26.12;24.44